sensor_id;sensor_type;location;lat;lon;timestamp;pressure;altitude;pressure_sealevel;temperature;humidity
18813;BME280;9534;51.140;6.296;2024-02-23T00:02:50;67352.38;;;5.86;100.00
18813;BME280;9534;51.140;6.296;2024-02-23T00:06:52;67353.78;;;5.83;100.00
18813;BME280;9534;51.140;6.296;2024-02-23T00:10:57;67349.22;;;5.79;100.00
18813;BME280;9534;51.140;6.296;2024-02-23T00:15:00;67340.28;;;5.73;100.00
18813;BME280;9534;51.140;6.296;2024-02-23T00:19:03;67331.50;;;5.70;100.00
18813;BME280;9534;51.140;6.296;2024-02-23T00:23:06;67341.41;;;5.74;100.00
18813;BME280;9534;51.140;6.296;2024-02-23T00:27:11;67345.00;;;5.80;100.00
18813;BME280;9534;51.140;6.296;2024-02-23T00:31:14;67354.19;;;5.81;100.00
18813;BME280;9534;51.140;6.296;2024-02-23T00:35:17;67348.41;;;5.83;100.00
18813;BME280;9534;51.140;6.296;2024-02-23T00:39:20;67367.03;;;5.97;100.00
18813;BME280;9534;51.140;6.296;2024-02-23T00:43:25;67378.38;;;6.07;100.00
18813;BME280;9534;51.140;6.296;2024-02-23T00:47:28;67370.00;;;6.02;100.00
18813;BME280;9534;51.140;6.296;2024-02-23T00:51:31;67387.47;;;6.14;100.00
18813;BME280;9534;51.140;6.296;2024-02-23T00:55:34;67393.13;;;6.19;100.00
18813;BME280;9534;51.140;6.296;2024-02-23T00:59:38;67393.84;;;6.22;100.00
18813;BME280;9534;51.140;6.296;2024-02-23T01:03:41;67397.56;;;6.21;100.00
18813;BME280;9534;51.140;6.296;2024-02-23T01:07:44;67392.00;;;6.18;100.00
18813;BME280;9534;51.140;6.296;2024-02-23T01:11:47;67400.38;;;6.23;100.00
18813;BME280;9534;51.140;6.296;2024-02-23T01:15:52;67387.75;;;6.19;100.00
18813;BME280;9534;51.140;6.296;2024-02-23T01:19:55;67372.84;;;6.04;100.00
18813;BME280;9534;51.140;6.296;2024-02-23T01:23:58;67367.03;;;5.97;100.00
18813;BME280;9534;51.140;6.296;2024-02-23T01:28:02;67365.16;;;5.93;100.00
18813;BME280;9534;51.140;6.296;2024-02-23T01:32:07;67354.09;;;5.88;100.00
18813;BME280;9534;51.140;6.296;2024-02-23T01:36:10;67350.09;;;5.84;100.00
18813;BME280;9534;51.140;6.296;2024-02-23T01:40:13;67354.91;;;5.84;100.00
18813;BME280;9534;51.140;6.296;2024-02-23T01:44:16;67358.31;;;5.87;100.00
18813;BME280;9534;51.140;6.296;2024-02-23T01:48:23;67361.00;;;5.87;100.00
18813;BME280;9534;51.140;6.296;2024-02-23T01:52:26;67357.19;;;5.86;100.00
18813;BME280;9534;51.140;6.296;2024-02-23T01:56:29;67350.25;;;5.87;100.00
18813;BME280;9534;51.140;6.296;2024-02-23T02:00:33;67348.81;;;5.81;100.00
18813;BME280;9534;51.140;6.296;2024-02-23T02:04:38;67335.91;;;5.72;100.00
18813;BME280;9534;51.140;6.296;2024-02-23T02:08:41;67336.00;;;5.65;100.00
18813;BME280;9534;51.140;6.296;2024-02-23T02:12:44;67340.88;;;5.74;100.00
18813;BME280;9534;51.140;6.296;2024-02-23T02:16:47;67348.66;;;5.78;100.00
18813;BME280;9534;51.140;6.296;2024-02-23T02:20:53;67341.28;;;5.72;100.00
18813;BME280;9534;51.140;6.296;2024-02-23T02:24:57;67343.97;;;5.72;100.00
18813;BME280;9534;51.140;6.296;2024-02-23T02:28:59;67329.91;;;5.62;100.00
18813;BME280;9534;51.140;6.296;2024-02-23T02:33:03;67319.13;;;5.52;100.00
18813;BME280;9534;51.140;6.296;2024-02-23T02:37:07;67318.31;;;5.56;100.00
18813;BME280;9534;51.140;6.296;2024-02-23T02:41:10;67318.84;;;5.57;100.00
18813;BME280;9534;51.140;6.296;2024-02-23T02:45:13;67334.47;;;5.66;100.00
18813;BME280;9534;51.140;6.296;2024-02-23T02:49:20;67331.19;;;5.65;100.00
18813;BME280;9534;51.140;6.296;2024-02-23T02:53:24;67341.69;;;5.70;100.00
18813;BME280;9534;51.140;6.296;2024-02-23T02:57:27;67335.91;;;5.72;100.00
18813;BME280;9534;51.140;6.296;2024-02-23T03:01:31;67339.31;;;5.75;100.00
18813;BME280;9534;51.140;6.296;2024-02-23T03:05:34;67342.72;;;5.78;100.00
18813;BME280;9534;51.140;6.296;2024-02-23T03:09:39;67356.78;;;5.88;100.00
18813;BME280;9534;51.140;6.296;2024-02-23T03:13:42;67352.22;;;5.84;100.00
18813;BME280;9534;51.140;6.296;2024-02-23T03:17:45;67341.28;;;5.72;100.00
18813;BME280;9534;51.140;6.296;2024-02-23T03:21:48;67337.88;;;5.69;100.00
18813;BME280;9534;51.140;6.296;2024-02-23T03:25:52;67325.13;;;5.62;100.00
18813;BME280;9534;51.140;6.296;2024-02-23T03:29:55;67328.38;;;5.63;100.00
18813;BME280;9534;51.140;6.296;2024-02-23T03:33:58;67329.34;;;5.61;100.00
18813;BME280;9534;51.140;6.296;2024-02-23T03:38:01;67332.50;;;5.69;100.00
18813;BME280;9534;51.140;6.296;2024-02-23T03:42:06;67342.41;;;5.73;100.00
18813;BME280;9534;51.140;6.296;2024-02-23T03:46:09;67346.97;;;5.77;100.00
18813;BME280;9534;51.140;6.296;2024-02-23T03:50:13;67340.88;;;5.74;100.00
18813;BME280;9534;51.140;6.296;2024-02-23T03:54:16;67338.59;;;5.72;100.00
18813;BME280;9534;51.140;6.296;2024-02-23T03:58:20;67340.88;;;5.74;100.00
18813;BME280;9534;51.140;6.296;2024-02-23T04:02:23;67337.03;;;5.73;100.00
18813;BME280;9534;51.140;6.296;2024-02-23T04:06:26;67338.44;;;5.69;100.00
18813;BME280;9534;51.140;6.296;2024-02-23T04:10:29;67342.72;;;5.78;100.00
18813;BME280;9534;51.140;6.296;2024-02-23T04:14:34;67345.00;;;5.80;100.00
18813;BME280;9534;51.140;6.296;2024-02-23T04:18:38;67349.69;;;5.86;100.00
18813;BME280;9534;51.140;6.296;2024-02-23T04:22:41;67363.03;;;5.93;100.00
18813;BME280;9534;51.140;6.296;2024-02-23T04:26:44;67364.75;;;5.95;100.00
18813;BME280;9534;51.140;6.296;2024-02-23T04:30:48;67364.63;;;6.02;100.00
18813;BME280;9534;51.140;6.296;2024-02-23T04:34:51;67374.97;;;6.04;100.00
18813;BME280;9534;51.140;6.296;2024-02-23T04:38:54;67371.72;;;6.03;100.00
18813;BME280;9534;51.140;6.296;2024-02-23T04:42:57;67371.84;;;6.06;100.00
18813;BME280;9534;51.140;6.296;2024-02-23T04:47:01;67371.56;;;6.01;100.00
18813;BME280;9534;51.140;6.296;2024-02-23T04:51:04;67367.44;;;5.95;100.00
18813;BME280;9534;51.140;6.296;2024-02-23T04:55:09;67357.75;;;5.86;100.00
18813;BME280;9534;51.140;6.296;2024-02-23T04:59:12;67351.50;;;5.81;100.00
18813;BME280;9534;51.140;6.296;2024-02-23T05:03:16;67345.81;;;5.76;100.00
18813;BME280;9534;51.140;6.296;2024-02-23T05:07:19;67363.31;;;5.89;100.00
18813;BME280;9534;51.140;6.296;2024-02-23T05:11:22;67368.56;;;5.96;100.00
18813;BME280;9534;51.140;6.296;2024-02-23T05:15:25;67364.34;;;5.97;100.00
18813;BME280;9534;51.140;6.296;2024-02-23T05:19:29;67371.72;;;6.03;100.00
18813;BME280;9534;51.140;6.296;2024-02-23T05:23:32;67382.50;;;6.13;100.00
18813;BME280;9534;51.140;6.296;2024-02-23T05:27:35;67387.88;;;6.13;100.00
18813;BME280;9534;51.140;6.296;2024-02-23T05:31:45;67386.31;;;6.13;100.00
18813;BME280;9534;51.140;6.296;2024-02-23T05:35:50;67394.84;;;6.21;100.00
18813;BME280;9534;51.140;6.296;2024-02-23T05:39:53;67401.53;;;6.24;100.00
18813;BME280;9534;51.140;6.296;2024-02-23T05:43:56;67397.69;;;6.23;100.00
18813;BME280;9534;51.140;6.296;2024-02-23T05:48:00;67399.53;;;6.27;100.00
18813;BME280;9534;51.140;6.296;2024-02-23T05:52:04;67390.03;;;6.21;100.00
18813;BME280;9534;51.140;6.296;2024-02-23T05:56:07;67392.16;;;6.21;100.00
18813;BME280;9534;51.140;6.296;2024-02-23T06:00:11;67400.38;;;6.23;100.00
18813;BME280;9534;51.140;6.296;2024-02-23T06:04:17;67396.81;;;6.18;100.00
18813;BME280;9534;51.140;6.296;2024-02-23T06:08:21;67377.94;;;6.09;100.00
18813;BME280;9534;51.140;6.296;2024-02-23T06:12:24;67375.66;;;6.07;100.00
18813;BME280;9534;51.140;6.296;2024-02-23T06:16:28;67371.56;;;6.01;100.00
18813;BME280;9534;51.140;6.296;2024-02-23T06:20:31;67367.75;;;6.00;100.00
18813;BME280;9534;51.140;6.296;2024-02-23T06:24:36;67358.66;;;5.92;100.00
18813;BME280;9534;51.140;6.296;2024-02-23T06:28:39;67373.13;;;6.00;100.00
18813;BME280;9534;51.140;6.296;2024-02-23T06:32:44;67369.44;;;6.01;100.00
18813;BME280;9534;51.140;6.296;2024-02-23T06:36:47;67374.53;;;6.06;100.00
18813;BME280;9534;51.140;6.296;2024-02-23T06:40:52;67384.75;;;6.14;100.00
18813;BME280;9534;51.140;6.296;2024-02-23T06:44:56;67380.22;;;6.11;100.00
18813;BME280;9534;51.140;6.296;2024-02-23T06:48:59;67381.78;;;6.10;100.00
18813;BME280;9534;51.140;6.296;2024-02-23T06:53:02;67374.13;;;6.08;100.00
18813;BME280;9534;51.140;6.296;2024-02-23T06:57:07;67386.75;;;6.12;100.00
18813;BME280;9534;51.140;6.296;2024-02-23T07:01:10;67389.72;;;6.16;100.00
18813;BME280;9534;51.140;6.296;2024-02-23T07:05:14;67397.28;;;6.25;100.00
18813;BME280;9534;51.140;6.296;2024-02-23T07:09:17;67400.38;;;6.23;100.00
18813;BME280;9534;51.140;6.296;2024-02-23T07:13:22;67401.81;;;6.29;100.00
18813;BME280;9534;51.140;6.296;2024-02-23T07:17:25;67409.47;;;6.31;100.00
18813;BME280;9534;51.140;6.296;2024-02-23T07:21:28;67418.56;;;6.39;100.00
18813;BME280;9534;51.140;6.296;2024-02-23T07:25:31;67430.50;;;6.50;100.00
18813;BME280;9534;51.140;6.296;2024-02-23T07:29:35;67420.44;;;6.43;100.00
18813;BME280;9534;51.140;6.296;2024-02-23T07:33:38;67432.50;;;6.56;100.00
18813;BME280;9534;51.140;6.296;2024-02-23T07:37:42;67443.06;;;6.70;100.00
18813;BME280;9534;51.140;6.296;2024-02-23T07:41:44;67426.13;;;6.48;100.00
18813;BME280;9534;51.140;6.296;2024-02-23T07:45:49;67419.72;;;6.40;100.00
18813;BME280;9534;51.140;6.296;2024-02-23T07:49:52;67442.16;;;6.65;100.00
18813;BME280;9534;51.140;6.296;2024-02-23T07:53:55;67502.31;;;7.15;100.00
18813;BME280;9534;51.140;6.296;2024-02-23T07:57:58;67501.03;;;7.12;100.00
18813;BME280;9534;51.140;6.296;2024-02-23T08:02:05;67478.81;;;6.92;100.00
18813;BME280;9534;51.140;6.296;2024-02-23T08:06:08;67475.00;;;6.91;100.00
18813;BME280;9534;51.140;6.296;2024-02-23T08:10:11;67503.44;;;7.16;100.00
18813;BME280;9534;51.140;6.296;2024-02-23T08:14:14;67456.41;;;6.77;100.00
18813;BME280;9534;51.140;6.296;2024-02-23T08:18:19;67440.19;;;6.58;100.00
18813;BME280;9534;51.140;6.296;2024-02-23T08:22:26;67466.34;;;6.81;100.00
18813;BME280;9534;51.140;6.296;2024-02-23T08:26:29;67556.94;;;7.63;100.00
18813;BME280;9534;51.140;6.296;2024-02-23T08:30:32;67519.78;;;7.28;100.00
18813;BME280;9534;51.140;6.296;2024-02-23T08:34:37;67547.66;;;7.52;100.00
18813;BME280;9534;51.140;6.296;2024-02-23T08:38:40;67583.81;;;7.89;100.00
18813;BME280;9534;51.140;6.296;2024-02-23T08:42:43;67567.75;;;7.72;100.00
18813;BME280;9534;51.140;6.296;2024-02-23T08:46:46;67581.97;;;7.85;100.00
18813;BME280;9534;51.140;6.296;2024-02-23T08:50:51;67575.84;;;7.82;100.00
18813;BME280;9534;51.140;6.296;2024-02-23T08:54:54;67570.59;;;7.75;100.00
18813;BME280;9534;51.140;6.296;2024-02-23T08:58:57;67527.63;;;7.42;100.00
18813;BME280;9534;51.140;6.296;2024-02-23T09:03:00;67566.19;;;7.73;100.00
18813;BME280;9534;51.140;6.296;2024-02-23T09:07:05;67571.28;;;7.78;100.00
18813;BME280;9534;51.140;6.296;2024-02-23T09:11:08;67566.03;;;7.71;100.00
18813;BME280;9534;51.140;6.296;2024-02-23T09:15:13;67558.50;;;7.62;100.00
18813;BME280;9534;51.140;6.296;2024-02-23T09:19:16;67539.88;;;7.48;100.00
18813;BME280;9534;51.140;6.296;2024-02-23T09:23:21;67541.28;;;7.54;100.00
18813;BME280;9534;51.140;6.296;2024-02-23T09:27:24;67552.53;;;7.61;100.00
18813;BME280;9534;51.140;6.296;2024-02-23T09:31:28;67577.00;;;7.83;100.00
18813;BME280;9534;51.140;6.296;2024-02-23T09:35:33;67565.63;;;7.73;100.00
18813;BME280;9534;51.140;6.296;2024-02-23T09:39:38;67583.81;;;7.89;100.00
18813;BME280;9534;51.140;6.296;2024-02-23T09:43:41;67581.53;;;7.87;100.00
18813;BME280;9534;51.140;6.296;2024-02-23T09:47:45;67575.13;;;7.79;100.00
18813;BME280;9534;51.140;6.296;2024-02-23T09:51:50;67571.72;;;7.76;100.00
18813;BME280;9534;51.140;6.296;2024-02-23T09:55:55;67566.75;;;7.74;100.00
18813;BME280;9534;51.140;6.296;2024-02-23T10:00:00;67583.53;;;7.84;100.00
18813;BME280;9534;51.140;6.296;2024-02-23T10:04:12;67578.13;;;7.84;100.00
18813;BME280;9534;51.140;6.296;2024-02-23T10:08:16;67578.41;;;7.79;100.00
18813;BME280;9534;51.140;6.296;2024-02-23T10:12:21;67579.25;;;7.85;100.00
18813;BME280;9534;51.140;6.296;2024-02-23T10:16:24;67597.66;;;8.03;100.00
18813;BME280;9534;51.140;6.296;2024-02-23T10:20:27;67601.91;;;8.02;100.00
18813;BME280;9534;51.140;6.296;2024-02-23T10:24:30;67601.47;;;8.04;100.00
18813;BME280;9534;51.140;6.296;2024-02-23T10:28:35;67649.63;;;8.42;100.00
18813;BME280;9534;51.140;6.296;2024-02-23T10:32:40;67625.56;;;8.28;100.00
18813;BME280;9534;51.140;6.296;2024-02-23T10:36:44;67628.66;;;8.26;100.00
18813;BME280;9534;51.140;6.296;2024-02-23T10:40:49;67598.19;;;8.04;100.00
18813;BME280;9534;51.140;6.296;2024-02-23T10:44:54;67628.66;;;8.26;100.00
18813;BME280;9534;51.140;6.296;2024-02-23T10:48:58;67652.59;;;8.47;100.00
18813;BME280;9534;51.140;6.296;2024-02-23T10:53:02;67645.34;;;8.43;100.00
18813;BME280;9534;51.140;6.296;2024-02-23T10:57:07;67691.75;;;8.78;100.00
18813;BME280;9534;51.140;6.296;2024-02-23T11:01:12;67700.75;;;8.93;100.00
18813;BME280;9534;51.140;6.296;2024-02-23T11:05:16;67693.06;;;8.91;100.00
18813;BME280;9534;51.140;6.296;2024-02-23T11:09:20;67776.41;;;9.57;100.00
18813;BME280;9534;51.140;6.296;2024-02-23T11:13:29;67704.59;;;8.94;100.00
18813;BME280;9534;51.140;6.296;2024-02-23T11:17:35;67696.59;;;8.87;100.00
18813;BME280;9534;51.140;6.296;2024-02-23T11:21:39;67706.31;;;8.96;100.00
18813;BME280;9534;51.140;6.296;2024-02-23T11:25:41;67693.19;;;8.84;100.00
18813;BME280;9534;51.140;6.296;2024-02-23T11:29:45;67677.53;;;8.75;100.00
18813;BME280;9534;51.140;6.296;2024-02-23T11:33:49;67662.88;;;8.56;100.00
18813;BME280;9534;51.140;6.296;2024-02-23T11:37:53;67654.47;;;8.51;100.00
18813;BME280;9534;51.140;6.296;2024-02-23T11:42:00;67654.16;;;8.46;100.00
18813;BME280;9534;51.140;6.296;2024-02-23T11:46:03;67655.31;;;8.47;100.00
18813;BME280;9534;51.140;6.296;2024-02-23T11:50:08;67652.19;;;8.49;100.00
18813;BME280;9534;51.140;6.296;2024-02-23T11:54:11;67655.91;;;8.57;100.00
18813;BME280;9534;51.140;6.296;2024-02-23T11:58:15;67648.75;;;8.46;100.00
18813;BME280;9534;51.140;6.296;2024-02-23T12:02:20;67659.16;;;8.57;100.00
18813;BME280;9534;51.140;6.296;2024-02-23T12:06:24;67682.94;;;8.75;100.00
18813;BME280;9534;51.140;6.296;2024-02-23T12:10:29;67661.31;;;8.57;100.00
18813;BME280;9534;51.140;6.296;2024-02-23T12:14:34;67671.25;;;8.60;100.00
18813;BME280;9534;51.140;6.296;2024-02-23T12:18:37;67679.63;;;8.65;100.00
18813;BME280;9534;51.140;6.296;2024-02-23T12:22:42;67679.22;;;8.67;100.00
18813;BME280;9534;51.140;6.296;2024-02-23T12:26:45;67692.47;;;8.81;100.00
18813;BME280;9534;51.140;6.296;2024-02-23T12:30:57;67727.22;;;9.12;100.00
18813;BME280;9534;51.140;6.296;2024-02-23T12:35:00;67766.13;;;9.48;100.00
18813;BME280;9534;51.140;6.296;2024-02-23T12:39:04;67859.00;;;10.27;100.00
18813;BME280;9534;51.140;6.296;2024-02-23T12:43:08;67852.59;;;10.28;100.00
18813;BME280;9534;51.140;6.296;2024-02-23T12:47:11;67901.38;;;10.66;100.00
18813;BME280;9534;51.140;6.296;2024-02-23T12:51:14;67817.75;;;9.98;100.00
18813;BME280;9534;51.140;6.296;2024-02-23T12:55:18;67759.31;;;9.42;100.00
18813;BME280;9534;51.140;6.296;2024-02-23T12:59:21;67739.22;;;9.22;100.00
18813;BME280;9534;51.140;6.296;2024-02-23T13:03:24;67753.19;;;9.39;100.00
18813;BME280;9534;51.140;6.296;2024-02-23T13:07:28;67762.03;;;9.42;100.00
18813;BME280;9534;51.140;6.296;2024-02-23T13:11:33;67761.16;;;9.46;100.00
18813;BME280;9534;51.140;6.296;2024-02-23T13:15:37;67756.75;;;9.45;100.00
18813;BME280;9534;51.140;6.296;2024-02-23T13:19:40;67795.22;;;9.74;100.00
18813;BME280;9534;51.140;6.296;2024-02-23T13:23:54;67811.34;;;9.90;100.00
18813;BME280;9534;51.140;6.296;2024-02-23T13:27:58;67895.25;;;10.63;100.00
18813;BME280;9534;51.140;6.296;2024-02-23T13:32:01;67833.34;;;10.14;100.00
18813;BME280;9534;51.140;6.296;2024-02-23T13:36:05;67802.63;;;9.80;100.00
18813;BME280;9534;51.140;6.296;2024-02-23T13:40:09;67853.59;;;10.27;100.00
18813;BME280;9534;51.140;6.296;2024-02-23T13:44:14;67919.19;;;10.84;100.00
18813;BME280;9534;51.140;6.296;2024-02-23T13:48:17;67922.06;;;10.87;100.00
18813;BME280;9534;51.140;6.296;2024-02-23T13:52:21;67830.03;;;10.04;100.00
18813;BME280;9534;51.140;6.296;2024-02-23T13:56:24;67793.38;;;9.70;100.00
18813;BME280;9534;51.140;6.296;2024-02-23T14:00:30;67784.38;;;9.64;100.00
18813;BME280;9534;51.140;6.296;2024-02-23T14:04:34;67797.34;;;9.73;100.00
18813;BME280;9534;51.140;6.296;2024-02-23T14:08:37;67805.34;;;9.80;100.00
18813;BME280;9534;51.140;6.296;2024-02-23T14:12:40;67779.81;;;9.60;100.00
18813;BME280;9534;51.140;6.296;2024-02-23T14:16:45;67780.13;;;9.56;100.00
18813;BME280;9534;51.140;6.296;2024-02-23T14:20:48;67761.88;;;9.49;100.00
18813;BME280;9534;51.140;6.296;2024-02-23T14:24:51;67775.25;;;9.56;100.00
18813;BME280;9534;51.140;6.296;2024-02-23T14:28:54;67844.00;;;10.11;100.00
18813;BME280;9534;51.140;6.296;2024-02-23T14:32:58;67730.81;;;9.17;100.00
18813;BME280;9534;51.140;6.296;2024-02-23T14:37:02;67835.56;;;10.06;100.00
18813;BME280;9534;51.140;6.296;2024-02-23T14:41:05;67853.59;;;10.27;100.00
18813;BME280;9534;51.140;6.296;2024-02-23T14:45:10;67743.34;;;9.28;100.00
18813;BME280;9534;51.140;6.296;2024-02-23T14:49:16;67692.47;;;8.81;100.00
18813;BME280;9534;51.140;6.296;2024-02-23T14:53:19;67692.63;;;8.84;100.00
18813;BME280;9534;51.140;6.296;2024-02-23T14:57:22;67644.06;;;8.39;100.00
18813;BME280;9534;51.140;6.296;2024-02-23T15:01:25;67625.66;;;8.21;100.00
18813;BME280;9534;51.140;6.296;2024-02-23T15:05:30;67638.81;;;8.42;100.00
18813;BME280;9534;51.140;6.296;2024-02-23T15:09:34;67661.72;;;8.55;100.00
18813;BME280;9534;51.140;6.296;2024-02-23T15:13:41;67667.13;;;8.64;100.00
18813;BME280;9534;51.140;6.296;2024-02-23T15:17:44;67684.06;;;8.76;100.00
18813;BME280;9534;51.140;6.296;2024-02-23T15:21:50;67658.03;;;8.56;100.00
18813;BME280;9534;51.140;6.296;2024-02-23T15:25:55;67671.97;;;8.63;100.00
18813;BME280;9534;51.140;6.296;2024-02-23T15:30:11;67671.41;;;8.63;100.00
18813;BME280;9534;51.140;6.296;2024-02-23T15:34:14;67679.50;;;8.72;100.00
18813;BME280;9534;51.140;6.296;2024-02-23T15:38:18;67766.72;;;9.49;100.00
18813;BME280;9534;51.140;6.296;2024-02-23T15:42:22;67810.34;;;9.82;100.00
18813;BME280;9534;51.140;6.296;2024-02-23T15:46:25;67724.38;;;9.09;100.00
18813;BME280;9534;51.140;6.296;2024-02-23T15:50:29;67774.41;;;9.51;100.00
18813;BME280;9534;51.140;6.296;2024-02-23T15:54:54;67689.78;;;8.81;100.00
18813;BME280;9534;51.140;6.296;2024-02-23T15:58:57;67680.66;;;8.73;100.00
18813;BME280;9534;51.140;6.296;2024-02-23T16:03:01;67674.22;;;8.65;100.00
18813;BME280;9534;51.140;6.296;2024-02-23T16:07:04;67676.09;;;8.69;100.00
18813;BME280;9534;51.140;6.296;2024-02-23T16:11:10;67688.34;;;8.75;100.00
18813;BME280;9534;51.140;6.296;2024-02-23T16:15:13;67688.63;;;8.80;100.00
18813;BME280;9534;51.140;6.296;2024-02-23T16:19:16;67698.59;;;8.84;100.00
18813;BME280;9534;51.140;6.296;2024-02-23T16:23:20;67695.34;;;8.84;100.00
18813;BME280;9534;51.140;6.296;2024-02-23T16:27:26;67673.38;;;8.69;100.00
18813;BME280;9534;51.140;6.296;2024-02-23T16:31:29;67651.47;;;8.46;100.00
18813;BME280;9534;51.140;6.296;2024-02-23T16:35:32;67636.50;;;8.30;100.00
18813;BME280;9534;51.140;6.296;2024-02-23T16:39:35;67635.94;;;8.30;100.00
18813;BME280;9534;51.140;6.296;2024-02-23T16:43:40;67626.09;;;8.19;100.00
18813;BME280;9534;51.140;6.296;2024-02-23T16:47:43;67612.00;;;8.09;100.00
18813;BME280;9534;51.140;6.296;2024-02-23T16:51:46;67617.84;;;8.16;100.00
18813;BME280;9534;51.140;6.296;2024-02-23T16:55:50;67619.97;;;8.16;100.00
18813;BME280;9534;51.140;6.296;2024-02-23T16:59:54;67609.28;;;8.09;100.00
18813;BME280;9534;51.140;6.296;2024-02-23T17:03:57;67602.63;;;8.05;100.00
18813;BME280;9534;51.140;6.296;2024-02-23T17:08:00;67604.91;;;8.07;100.00
18813;BME280;9534;51.140;6.296;2024-02-23T17:12:04;67599.75;;;8.03;100.00
18813;BME280;9534;51.140;6.296;2024-02-23T17:16:08;67608.56;;;8.06;100.00
18813;BME280;9534;51.140;6.296;2024-02-23T17:20:11;67607.44;;;8.05;100.00
18813;BME280;9534;51.140;6.296;2024-02-23T17:24:15;67604.59;;;8.02;100.00
18813;BME280;9534;51.140;6.296;2024-02-23T17:28:18;67603.59;;;8.04;100.00
18813;BME280;9534;51.140;6.296;2024-02-23T17:32:23;67592.94;;;7.97;100.00
18813;BME280;9534;51.140;6.296;2024-02-23T17:36:26;67603.19;;;8.06;100.00
18813;BME280;9534;51.140;6.296;2024-02-23T17:40:30;67607.44;;;8.05;100.00
18813;BME280;9534;51.140;6.296;2024-02-23T17:44:33;67613.13;;;8.10;100.00
18813;BME280;9534;51.140;6.296;2024-02-23T17:48:39;67606.59;;;8.09;100.00
18813;BME280;9534;51.140;6.296;2024-02-23T17:52:42;67612.16;;;8.11;100.00
18813;BME280;9534;51.140;6.296;2024-02-23T17:56:45;67612.28;;;8.14;100.00
18813;BME280;9534;51.140;6.296;2024-02-23T18:00:48;67618.84;;;8.15;100.00
18813;BME280;9534;51.140;6.296;2024-02-23T18:04:53;67618.28;;;8.14;100.00
18813;BME280;9534;51.140;6.296;2024-02-23T18:08:56;67612.00;;;8.09;100.00
18813;BME280;9534;51.140;6.296;2024-02-23T18:12:59;67607.59;;;8.07;100.00
18813;BME280;9534;51.140;6.296;2024-02-23T18:17:03;67598.91;;;8.07;100.00
18813;BME280;9534;51.140;6.296;2024-02-23T18:21:08;67605.47;;;8.08;100.00
18813;BME280;9534;51.140;6.296;2024-02-23T18:25:13;67602.03;;;8.05;100.00
18813;BME280;9534;51.140;6.296;2024-02-23T18:29:16;67596.94;;;8.00;100.00
18813;BME280;9534;51.140;6.296;2024-02-23T18:33:21;67587.66;;;7.90;100.00
18813;BME280;9534;51.140;6.296;2024-02-23T18:37:25;67592.63;;;7.92;100.00
18813;BME280;9534;51.140;6.296;2024-02-23T18:41:28;67590.34;;;7.90;100.00
18813;BME280;9534;51.140;6.296;2024-02-23T18:45:31;67586.94;;;7.87;100.00
18813;BME280;9534;51.140;6.296;2024-02-23T18:49:36;67560.78;;;7.64;100.00
18813;BME280;9534;51.140;6.296;2024-02-23T18:53:40;67550.94;;;7.53;100.00
18813;BME280;9534;51.140;6.296;2024-02-23T18:57:44;67540.59;;;7.51;100.00
18813;BME280;9534;51.140;6.296;2024-02-23T19:01:46;67543.69;;;7.49;100.00
18813;BME280;9534;51.140;6.296;2024-02-23T19:05:50;67551.66;;;7.56;100.00
18813;BME280;9534;51.140;6.296;2024-02-23T19:09:54;67539.88;;;7.48;100.00
18813;BME280;9534;51.140;6.296;2024-02-23T19:13:58;67528.91;;;7.36;100.00
18813;BME280;9534;51.140;6.296;2024-02-23T19:18:02;67510.72;;;7.30;100.00
18813;BME280;9534;51.140;6.296;2024-02-23T19:22:05;67522.06;;;7.30;100.00
18813;BME280;9534;51.140;6.296;2024-02-23T19:26:09;67514.97;;;7.29;100.00
18813;BME280;9534;51.140;6.296;2024-02-23T19:30:12;67517.09;;;7.28;100.00
18813;BME280;9534;51.140;6.296;2024-02-23T19:34:17;67510.56;;;7.27;100.00
18813;BME280;9534;51.140;6.296;2024-02-23T19:38:20;67516.38;;;7.25;100.00
18813;BME280;9534;51.140;6.296;2024-02-23T19:42:25;67507.56;;;7.22;100.00
18813;BME280;9534;51.140;6.296;2024-02-23T19:46:28;67501.75;;;7.15;100.00
18813;BME280;9534;51.140;6.296;2024-02-23T19:50:31;67498.59;;;7.07;100.00
18813;BME280;9534;51.140;6.296;2024-02-23T19:54:35;67480.69;;;6.96;100.00
18813;BME280;9534;51.140;6.296;2024-02-23T19:58:39;67464.38;;;6.84;100.00
18813;BME280;9534;51.140;6.296;2024-02-23T20:02:42;67456.41;;;6.77;100.00
18813;BME280;9534;51.140;6.296;2024-02-23T20:06:45;67447.31;;;6.69;100.00
18813;BME280;9534;51.140;6.296;2024-02-23T20:10:48;67441.31;;;6.59;100.00
18813;BME280;9534;51.140;6.296;2024-02-23T20:14:53;67431.81;;;6.53;100.00
18813;BME280;9534;51.140;6.296;2024-02-23T20:18:56;67431.38;;;6.55;100.00
18813;BME280;9534;51.140;6.296;2024-02-23T20:22:59;67433.66;;;6.57;100.00
18813;BME280;9534;51.140;6.296;2024-02-23T20:27:02;67432.50;;;6.56;100.00
18813;BME280;9534;51.140;6.296;2024-02-23T20:31:09;67437.91;;;6.56;100.00
18813;BME280;9534;51.140;6.296;2024-02-23T20:35:13;67427.38;;;6.52;100.00
18813;BME280;9534;51.140;6.296;2024-02-23T20:39:16;67419.72;;;6.40;100.00
18813;BME280;9534;51.140;6.296;2024-02-23T20:43:19;67408.34;;;6.30;100.00
18813;BME280;9534;51.140;6.296;2024-02-23T20:47:25;67393.13;;;6.19;100.00
18813;BME280;9534;51.140;6.296;2024-02-23T20:51:29;67389.44;;;6.12;100.00
18813;BME280;9534;51.140;6.296;2024-02-23T20:55:32;67381.06;;;6.07;100.00
18813;BME280;9534;51.140;6.296;2024-02-23T20:59:35;67368.47;;;6.03;100.00
18813;BME280;9534;51.140;6.296;2024-02-23T21:03:40;67373.69;;;6.00;100.00
18813;BME280;9534;51.140;6.296;2024-02-23T21:07:43;67375.94;;;6.02;100.00
18813;BME280;9534;51.140;6.296;2024-02-23T21:11:47;67368.88;;;6.01;100.00
18813;BME280;9534;51.140;6.296;2024-02-23T21:15:50;67366.31;;;5.94;100.00
18813;BME280;9534;51.140;6.296;2024-02-23T21:19:57;67356.38;;;5.90;100.00
18813;BME280;9534;51.140;6.296;2024-02-23T21:24:00;67357.34;;;5.88;100.00
18813;BME280;9534;51.140;6.296;2024-02-23T21:28:05;67352.94;;;5.87;100.00
18813;BME280;9534;51.140;6.296;2024-02-23T21:32:10;67351.09;;;5.83;100.00
18813;BME280;9534;51.140;6.296;2024-02-23T21:36:14;67348.81;;;5.81;100.00
18813;BME280;9534;51.140;6.296;2024-02-23T21:40:17;67338.16;;;5.74;100.00
18813;BME280;9534;51.140;6.296;2024-02-23T21:44:20;67339.16;;;5.72;100.00
18813;BME280;9534;51.140;6.296;2024-02-23T21:48:23;67337.88;;;5.69;100.00